Terminal Aerodrome Forecast
Issued by NWS

Home | Current Version | Previous Version | Text Only | Print | Product List | Glossary On
Versions: 1 2 3 4 5 6 7 8 9 10 11 12 13 14
966
FTUS45 KABQ 271754 RRA
TAFFMN
TAF
KFMN 271754Z 2718/2818 24016G26KT P6SM BKN060
     FM280100 23011KT P6SM -RA OVC040
     FM280600 26010KT 4SM -SNRA BR OVC025
     FM281500 30015G25KT P6SM -SHRASN OVC035=

USA.gov is the U.S. government's official web portal to all federal, state and local government web resources and services.